sensor_id;sensor_type;location;lat;lon;timestamp;P1;durP1;ratioP1;P2;durP2;ratioP2
67816;SDS011;54614;47.576;7.524;2023-09-08T00:00:57;3.30;;;3.00;;
67816;SDS011;54614;47.576;7.524;2023-09-08T00:03:23;3.30;;;3.00;;
67816;SDS011;54614;47.576;7.524;2023-09-08T00:05:48;3.10;;;2.80;;
67816;SDS011;54614;47.576;7.524;2023-09-08T00:08:14;3.03;;;2.83;;
67816;SDS011;54614;47.576;7.524;2023-09-08T00:10:40;3.20;;;2.90;;
67816;SDS011;54614;47.576;7.524;2023-09-08T00:13:06;2.92;;;2.72;;
67816;SDS011;54614;47.576;7.524;2023-09-08T00:15:36;3.10;;;2.60;;
67816;SDS011;54614;47.576;7.524;2023-09-08T00:18:02;3.20;;;2.90;;
67816;SDS011;54614;47.576;7.524;2023-09-08T00:20:28;3.10;;;2.80;;
67816;SDS011;54614;47.576;7.524;2023-09-08T00:22:54;3.00;;;2.70;;
67816;SDS011;54614;47.576;7.524;2023-09-08T00:25:19;3.10;;;2.90;;
67816;SDS011;54614;47.576;7.524;2023-09-08T00:27:45;3.63;;;2.78;;
67816;SDS011;54614;47.576;7.524;2023-09-08T00:30:11;2.92;;;2.72;;
67816;SDS011;54614;47.576;7.524;2023-09-08T00:32:37;2.80;;;2.60;;
67816;SDS011;54614;47.576;7.524;2023-09-08T00:35:05;2.75;;;2.55;;
67816;SDS011;54614;47.576;7.524;2023-09-08T00:37:33;3.15;;;2.90;;
67816;SDS011;54614;47.576;7.524;2023-09-08T00:39:58;3.10;;;2.90;;
67816;SDS011;54614;47.576;7.524;2023-09-08T00:42:24;3.25;;;2.95;;
67816;SDS011;54614;47.576;7.524;2023-09-08T00:44:50;3.03;;;2.70;;
67816;SDS011;54614;47.576;7.524;2023-09-08T00:47:15;3.22;;;2.92;;
67816;SDS011;54614;47.576;7.524;2023-09-08T00:49:42;3.20;;;2.90;;
67816;SDS011;54614;47.576;7.524;2023-09-08T00:52:08;3.40;;;3.10;;
67816;SDS011;54614;47.576;7.524;2023-09-08T00:54:34;3.40;;;3.10;;
67816;SDS011;54614;47.576;7.524;2023-09-08T00:57:01;2.88;;;2.67;;
67816;SDS011;54614;47.576;7.524;2023-09-08T00:59:31;3.33;;;3.03;;
67816;SDS011;54614;47.576;7.524;2023-09-08T01:01:59;3.50;;;3.20;;
67816;SDS011;54614;47.576;7.524;2023-09-08T01:04:26;3.83;;;3.25;;
67816;SDS011;54614;47.576;7.524;2023-09-08T01:06:51;3.33;;;3.00;;
67816;SDS011;54614;47.576;7.524;2023-09-08T01:09:19;3.30;;;3.00;;
67816;SDS011;54614;47.576;7.524;2023-09-08T01:11:45;3.40;;;3.00;;
67816;SDS011;54614;47.576;7.524;2023-09-08T01:14:12;3.40;;;3.10;;
67816;SDS011;54614;47.576;7.524;2023-09-08T01:16:40;4.15;;;3.20;;
67816;SDS011;54614;47.576;7.524;2023-09-08T01:19:08;3.28;;;2.97;;
67816;SDS011;54614;47.576;7.524;2023-09-08T01:22:02;3.75;;;3.28;;
67816;SDS011;54614;47.576;7.524;2023-09-08T01:25:07;3.78;;;3.38;;
67816;SDS011;54614;47.576;7.524;2023-09-08T01:27:53;3.40;;;3.10;;
67816;SDS011;54614;47.576;7.524;2023-09-08T01:30:23;3.83;;;3.00;;
67816;SDS011;54614;47.576;7.524;2023-09-08T01:32:51;3.40;;;3.10;;
67816;SDS011;54614;47.576;7.524;2023-09-08T01:35:19;3.33;;;3.03;;
67816;SDS011;54614;47.576;7.524;2023-09-08T01:37:46;3.65;;;3.35;;
67816;SDS011;54614;47.576;7.524;2023-09-08T01:40:14;5.60;;;3.25;;
67816;SDS011;54614;47.576;7.524;2023-09-08T01:42:40;3.78;;;3.40;;
67816;SDS011;54614;47.576;7.524;2023-09-08T01:45:07;3.60;;;3.30;;
67816;SDS011;54614;47.576;7.524;2023-09-08T01:47:33;4.38;;;3.50;;
67816;SDS011;54614;47.576;7.524;2023-09-08T01:50:00;4.72;;;3.53;;
67816;SDS011;54614;47.576;7.524;2023-09-08T01:52:26;3.65;;;3.25;;
67816;SDS011;54614;47.576;7.524;2023-09-08T01:54:52;6.47;;;3.40;;
67816;SDS011;54614;47.576;7.524;2023-09-08T01:57:18;3.35;;;3.05;;
67816;SDS011;54614;47.576;7.524;2023-09-08T01:59:44;3.50;;;3.20;;
67816;SDS011;54614;47.576;7.524;2023-09-08T02:02:10;4.35;;;3.72;;
67816;SDS011;54614;47.576;7.524;2023-09-08T02:04:36;3.38;;;3.08;;
67816;SDS011;54614;47.576;7.524;2023-09-08T02:07:02;3.20;;;3.00;;
67816;SDS011;54614;47.576;7.524;2023-09-08T02:09:33;3.50;;;3.20;;
67816;SDS011;54614;47.576;7.524;2023-09-08T02:12:01;3.47;;;3.00;;
67816;SDS011;54614;47.576;7.524;2023-09-08T02:14:28;3.83;;;3.45;;
67816;SDS011;54614;47.576;7.524;2023-09-08T02:16:54;3.40;;;3.10;;
67816;SDS011;54614;47.576;7.524;2023-09-08T02:19:21;3.55;;;3.25;;
67816;SDS011;54614;47.576;7.524;2023-09-08T02:21:47;4.00;;;3.15;;
67816;SDS011;54614;47.576;7.524;2023-09-08T02:24:13;4.68;;;3.50;;
67816;SDS011;54614;47.576;7.524;2023-09-08T02:26:39;3.70;;;3.40;;
67816;SDS011;54614;47.576;7.524;2023-09-08T02:29:05;3.00;;;2.80;;
67816;SDS011;54614;47.576;7.524;2023-09-08T02:31:32;3.95;;;3.15;;
67816;SDS011;54614;47.576;7.524;2023-09-08T02:33:58;3.40;;;3.10;;
67816;SDS011;54614;47.576;7.524;2023-09-08T02:36:24;3.58;;;3.28;;
67816;SDS011;54614;47.576;7.524;2023-09-08T02:38:54;3.60;;;3.30;;
67816;SDS011;54614;47.576;7.524;2023-09-08T02:41:21;3.40;;;3.10;;
67816;SDS011;54614;47.576;7.524;2023-09-08T02:43:48;4.03;;;3.45;;
67816;SDS011;54614;47.576;7.524;2023-09-08T02:46:14;3.80;;;3.38;;
67816;SDS011;54614;47.576;7.524;2023-09-08T02:48:40;3.72;;;3.35;;
67816;SDS011;54614;47.576;7.524;2023-09-08T02:51:06;3.53;;;3.20;;
67816;SDS011;54614;47.576;7.524;2023-09-08T02:53:32;3.40;;;3.10;;
67816;SDS011;54614;47.576;7.524;2023-09-08T02:55:58;3.40;;;3.10;;
67816;SDS011;54614;47.576;7.524;2023-09-08T02:58:24;3.30;;;3.00;;
67816;SDS011;54614;47.576;7.524;2023-09-08T03:00:51;3.63;;;3.33;;
67816;SDS011;54614;47.576;7.524;2023-09-08T03:03:18;4.43;;;3.28;;
67816;SDS011;54614;47.576;7.524;2023-09-08T03:05:44;3.60;;;3.30;;
67816;SDS011;54614;47.576;7.524;2023-09-08T03:08:10;3.50;;;3.20;;
67816;SDS011;54614;47.576;7.524;2023-09-08T03:10:36;3.92;;;3.53;;
67816;SDS011;54614;47.576;7.524;2023-09-08T03:13:02;3.50;;;3.20;;
67816;SDS011;54614;47.576;7.524;2023-09-08T03:15:29;3.22;;;2.95;;
67816;SDS011;54614;47.576;7.524;2023-09-08T03:17:55;3.60;;;3.30;;
67816;SDS011;54614;47.576;7.524;2023-09-08T03:20:25;3.35;;;3.13;;
67816;SDS011;54614;47.576;7.524;2023-09-08T03:22:53;3.17;;;2.97;;
67816;SDS011;54614;47.576;7.524;2023-09-08T03:25:20;3.50;;;3.20;;
67816;SDS011;54614;47.576;7.524;2023-09-08T03:27:46;3.60;;;3.30;;
67816;SDS011;54614;47.576;7.524;2023-09-08T03:30:12;3.55;;;3.25;;
67816;SDS011;54614;47.576;7.524;2023-09-08T03:32:38;3.78;;;3.05;;
67816;SDS011;54614;47.576;7.524;2023-09-08T03:35:04;3.33;;;3.10;;
67816;SDS011;54614;47.576;7.524;2023-09-08T03:37:32;3.55;;;3.25;;
67816;SDS011;54614;47.576;7.524;2023-09-08T03:40:01;3.70;;;3.40;;
67816;SDS011;54614;47.576;7.524;2023-09-08T03:42:30;3.28;;;3.05;;
67816;SDS011;54614;47.576;7.524;2023-09-08T03:44:56;4.28;;;3.40;;
67816;SDS011;54614;47.576;7.524;2023-09-08T03:47:22;3.53;;;3.15;;
67816;SDS011;54614;47.576;7.524;2023-09-08T03:49:47;3.20;;;2.92;;
67816;SDS011;54614;47.576;7.524;2023-09-08T03:52:13;3.50;;;3.20;;
67816;SDS011;54614;47.576;7.524;2023-09-08T03:54:39;3.38;;;3.08;;
67816;SDS011;54614;47.576;7.524;2023-09-08T03:57:04;3.28;;;3.00;;
67816;SDS011;54614;47.576;7.524;2023-09-08T03:59:30;3.40;;;3.10;;
67816;SDS011;54614;47.576;7.524;2023-09-08T04:01:56;3.42;;;3.13;;
67816;SDS011;54614;47.576;7.524;2023-09-08T04:04:22;3.50;;;3.05;;
67816;SDS011;54614;47.576;7.524;2023-09-08T04:06:48;3.35;;;3.05;;
67816;SDS011;54614;47.576;7.524;2023-09-08T04:09:13;3.88;;;3.58;;
67816;SDS011;54614;47.576;7.524;2023-09-08T04:11:39;3.60;;;3.30;;
67816;SDS011;54614;47.576;7.524;2023-09-08T04:14:05;3.60;;;3.30;;
67816;SDS011;54614;47.576;7.524;2023-09-08T04:16:31;9.73;;;4.22;;
67816;SDS011;54614;47.576;7.524;2023-09-08T04:18:56;17.40;;;4.95;;
67816;SDS011;54614;47.576;7.524;2023-09-08T04:21:22;11.80;;;4.30;;
67816;SDS011;54614;47.576;7.524;2023-09-08T04:23:48;9.95;;;4.20;;
67816;SDS011;54614;47.576;7.524;2023-09-08T04:26:14;7.70;;;4.25;;
67816;SDS011;54614;47.576;7.524;2023-09-08T04:28:39;5.97;;;3.92;;
67816;SDS011;54614;47.576;7.524;2023-09-08T04:31:05;8.63;;;3.70;;
67816;SDS011;54614;47.576;7.524;2023-09-08T04:33:31;6.03;;;3.50;;
67816;SDS011;54614;47.576;7.524;2023-09-08T04:35:56;5.22;;;3.88;;
67816;SDS011;54614;47.576;7.524;2023-09-08T04:38:22;5.32;;;3.78;;
67816;SDS011;54614;47.576;7.524;2023-09-08T04:40:48;5.25;;;3.60;;
67816;SDS011;54614;47.576;7.524;2023-09-08T04:43:14;5.80;;;4.15;;
67816;SDS011;54614;47.576;7.524;2023-09-08T04:45:40;5.82;;;3.88;;
67816;SDS011;54614;47.576;7.524;2023-09-08T04:48:06;10.85;;;4.03;;
67816;SDS011;54614;47.576;7.524;2023-09-08T04:50:32;9.73;;;4.00;;
67816;SDS011;54614;47.576;7.524;2023-09-08T04:52:58;6.45;;;5.22;;
67816;SDS011;54614;47.576;7.524;2023-09-08T04:55:23;6.70;;;5.97;;
67816;SDS011;54614;47.576;7.524;2023-09-08T04:57:49;9.60;;;6.15;;
67816;SDS011;54614;47.576;7.524;2023-09-08T05:00:15;10.13;;;6.40;;
67816;SDS011;54614;47.576;7.524;2023-09-08T05:02:41;7.50;;;5.97;;
67816;SDS011;54614;47.576;7.524;2023-09-08T05:05:07;11.68;;;6.20;;
67816;SDS011;54614;47.576;7.524;2023-09-08T05:07:33;8.13;;;5.75;;
67816;SDS011;54614;47.576;7.524;2023-09-08T05:09:59;8.32;;;6.03;;
67816;SDS011;54614;47.576;7.524;2023-09-08T05:12:24;8.15;;;6.18;;
67816;SDS011;54614;47.576;7.524;2023-09-08T05:14:50;6.93;;;6.20;;
67816;SDS011;54614;47.576;7.524;2023-09-08T05:17:21;9.45;;;6.10;;
67816;SDS011;54614;47.576;7.524;2023-09-08T05:19:48;6.70;;;5.82;;
67816;SDS011;54614;47.576;7.524;2023-09-08T05:22:14;19.33;;;6.68;;
67816;SDS011;54614;47.576;7.524;2023-09-08T05:24:40;8.88;;;6.10;;
67816;SDS011;54614;47.576;7.524;2023-09-08T05:27:05;8.32;;;6.28;;
67816;SDS011;54614;47.576;7.524;2023-09-08T05:29:31;8.77;;;6.32;;
67816;SDS011;54614;47.576;7.524;2023-09-08T05:31:57;10.50;;;6.38;;
67816;SDS011;54614;47.576;7.524;2023-09-08T05:34:23;7.22;;;6.05;;
67816;SDS011;54614;47.576;7.524;2023-09-08T05:36:49;7.22;;;5.97;;
67816;SDS011;54614;47.576;7.524;2023-09-08T05:39:15;10.85;;;6.90;;
67816;SDS011;54614;47.576;7.524;2023-09-08T05:41:42;9.05;;;6.53;;
67816;SDS011;54614;47.576;7.524;2023-09-08T05:44:08;9.65;;;6.70;;
67816;SDS011;54614;47.576;7.524;2023-09-08T05:46:34;10.07;;;6.40;;
67816;SDS011;54614;47.576;7.524;2023-09-08T05:49:00;10.00;;;6.80;;
67816;SDS011;54614;47.576;7.524;2023-09-08T05:51:25;10.48;;;6.45;;
67816;SDS011;54614;47.576;7.524;2023-09-08T05:53:51;12.55;;;6.47;;
67816;SDS011;54614;47.576;7.524;2023-09-08T05:56:18;7.60;;;6.35;;
67816;SDS011;54614;47.576;7.524;2023-09-08T05:58:47;11.00;;;6.03;;
67816;SDS011;54614;47.576;7.524;2023-09-08T06:01:13;9.10;;;6.60;;
67816;SDS011;54614;47.576;7.524;2023-09-08T06:03:40;13.43;;;7.05;;
67816;SDS011;54614;47.576;7.524;2023-09-08T06:06:06;10.63;;;6.85;;
67816;SDS011;54614;47.576;7.524;2023-09-08T06:08:32;11.13;;;6.88;;
67816;SDS011;54614;47.576;7.524;2023-09-08T06:10:58;9.80;;;7.30;;
67816;SDS011;54614;47.576;7.524;2023-09-08T06:13:23;11.30;;;6.78;;
67816;SDS011;54614;47.576;7.524;2023-09-08T06:15:50;8.52;;;7.20;;
67816;SDS011;54614;47.576;7.524;2023-09-08T06:18:16;7.95;;;6.78;;
67816;SDS011;54614;47.576;7.524;2023-09-08T06:20:45;9.68;;;6.90;;
67816;SDS011;54614;47.576;7.524;2023-09-08T06:23:12;11.18;;;6.70;;
67816;SDS011;54614;47.576;7.524;2023-09-08T06:25:38;12.80;;;6.70;;
67816;SDS011;54614;47.576;7.524;2023-09-08T06:28:05;9.43;;;6.35;;
67816;SDS011;54614;47.576;7.524;2023-09-08T06:30:31;9.02;;;6.25;;
67816;SDS011;54614;47.576;7.524;2023-09-08T06:32:57;9.95;;;6.25;;
67816;SDS011;54614;47.576;7.524;2023-09-08T06:35:22;10.95;;;6.40;;
67816;SDS011;54614;47.576;7.524;2023-09-08T06:37:48;9.30;;;6.30;;
67816;SDS011;54614;47.576;7.524;2023-09-08T06:40:14;9.45;;;6.68;;
67816;SDS011;54614;47.576;7.524;2023-09-08T06:42:40;8.93;;;6.32;;
67816;SDS011;54614;47.576;7.524;2023-09-08T06:45:05;10.90;;;6.03;;
67816;SDS011;54614;47.576;7.524;2023-09-08T06:47:32;9.00;;;6.28;;
67816;SDS011;54614;47.576;7.524;2023-09-08T06:49:58;9.65;;;6.32;;
67816;SDS011;54614;47.576;7.524;2023-09-08T06:52:23;8.38;;;6.22;;
67816;SDS011;54614;47.576;7.524;2023-09-08T06:54:49;8.77;;;6.20;;
67816;SDS011;54614;47.576;7.524;2023-09-08T06:57:17;10.27;;;5.85;;
67816;SDS011;54614;47.576;7.524;2023-09-08T06:59:46;13.63;;;6.38;;
67816;SDS011;54614;47.576;7.524;2023-09-08T07:02:12;9.13;;;5.90;;
67816;SDS011;54614;47.576;7.524;2023-09-08T07:04:38;8.93;;;6.10;;
67816;SDS011;54614;47.576;7.524;2023-09-08T07:07:04;13.95;;;6.20;;
67816;SDS011;54614;47.576;7.524;2023-09-08T07:09:32;11.07;;;6.07;;
67816;SDS011;54614;47.576;7.524;2023-09-08T07:12:05;8.13;;;6.20;;
67816;SDS011;54614;47.576;7.524;2023-09-08T07:14:31;12.85;;;6.22;;
67816;SDS011;54614;47.576;7.524;2023-09-08T07:16:57;8.48;;;5.85;;
67816;SDS011;54614;47.576;7.524;2023-09-08T07:19:23;11.55;;;5.93;;
67816;SDS011;54614;47.576;7.524;2023-09-08T07:21:51;8.50;;;5.75;;
67816;SDS011;54614;47.576;7.524;2023-09-08T07:24:17;8.35;;;5.97;;
67816;SDS011;54614;47.576;7.524;2023-09-08T07:26:42;11.30;;;5.97;;
67816;SDS011;54614;47.576;7.524;2023-09-08T07:29:08;8.50;;;6.05;;
67816;SDS011;54614;47.576;7.524;2023-09-08T07:31:34;8.98;;;6.00;;
67816;SDS011;54614;47.576;7.524;2023-09-08T07:34:00;11.95;;;6.13;;
67816;SDS011;54614;47.576;7.524;2023-09-08T07:36:26;6.97;;;5.75;;
67816;SDS011;54614;47.576;7.524;2023-09-08T07:38:51;10.27;;;5.80;;
67816;SDS011;54614;47.576;7.524;2023-09-08T07:41:17;8.13;;;5.45;;
67816;SDS011;54614;47.576;7.524;2023-09-08T07:43:43;8.15;;;5.85;;
67816;SDS011;54614;47.576;7.524;2023-09-08T07:46:10;9.05;;;5.70;;
67816;SDS011;54614;47.576;7.524;2023-09-08T07:48:36;8.68;;;5.60;;
67816;SDS011;54614;47.576;7.524;2023-09-08T07:51:02;8.38;;;5.90;;
67816;SDS011;54614;47.576;7.524;2023-09-08T07:53:28;10.65;;;5.60;;
67816;SDS011;54614;47.576;7.524;2023-09-08T07:55:54;10.27;;;6.00;;
67816;SDS011;54614;47.576;7.524;2023-09-08T07:58:20;13.02;;;5.57;;
67816;SDS011;54614;47.576;7.524;2023-09-08T08:00:46;9.90;;;5.50;;
67816;SDS011;54614;47.576;7.524;2023-09-08T08:03:12;13.20;;;5.70;;
67816;SDS011;54614;47.576;7.524;2023-09-08T08:05:38;9.32;;;5.45;;
67816;SDS011;54614;47.576;7.524;2023-09-08T08:08:04;14.93;;;5.55;;
67816;SDS011;54614;47.576;7.524;2023-09-08T08:10:29;7.15;;;5.40;;
67816;SDS011;54614;47.576;7.524;2023-09-08T08:12:56;9.43;;;5.40;;
67816;SDS011;54614;47.576;7.524;2023-09-08T08:15:22;7.82;;;5.32;;
67816;SDS011;54614;47.576;7.524;2023-09-08T08:18:03;8.98;;;5.60;;
67816;SDS011;54614;47.576;7.524;2023-09-08T08:20:30;8.07;;;5.40;;
67816;SDS011;54614;47.576;7.524;2023-09-08T08:23:00;6.97;;;5.38;;
67816;SDS011;54614;47.576;7.524;2023-09-08T08:25:27;9.55;;;5.80;;
67816;SDS011;54614;47.576;7.524;2023-09-08T08:27:53;7.50;;;5.43;;
67816;SDS011;54614;47.576;7.524;2023-09-08T08:30:19;6.65;;;5.65;;
67816;SDS011;54614;47.576;7.524;2023-09-08T08:32:45;7.22;;;5.57;;
67816;SDS011;54614;47.576;7.524;2023-09-08T08:35:11;6.90;;;5.25;;
67816;SDS011;54614;47.576;7.524;2023-09-08T08:37:39;8.57;;;5.38;;
67816;SDS011;54614;47.576;7.524;2023-09-08T08:40:06;5.75;;;5.15;;
67816;SDS011;54614;47.576;7.524;2023-09-08T08:42:34;7.45;;;5.60;;
67816;SDS011;54614;47.576;7.524;2023-09-08T08:45:00;8.80;;;5.30;;
67816;SDS011;54614;47.576;7.524;2023-09-08T08:47:27;6.22;;;5.50;;
67816;SDS011;54614;47.576;7.524;2023-09-08T08:49:56;8.90;;;5.15;;
67816;SDS011;54614;47.576;7.524;2023-09-08T08:52:25;6.45;;;4.90;;
67816;SDS011;54614;47.576;7.524;2023-09-08T08:54:52;7.63;;;5.00;;
67816;SDS011;54614;47.576;7.524;2023-09-08T08:57:18;8.93;;;5.07;;
67816;SDS011;54614;47.576;7.524;2023-09-08T08:59:46;6.40;;;5.15;;
67816;SDS011;54614;47.576;7.524;2023-09-08T09:02:14;6.35;;;5.43;;
67816;SDS011;54614;47.576;7.524;2023-09-08T09:04:40;6.07;;;5.20;;
67816;SDS011;54614;47.576;7.524;2023-09-08T09:07:07;6.10;;;5.00;;
67816;SDS011;54614;47.576;7.524;2023-09-08T09:09:33;8.35;;;5.43;;
67816;SDS011;54614;47.576;7.524;2023-09-08T09:11:59;7.65;;;5.57;;
67816;SDS011;54614;47.576;7.524;2023-09-08T09:14:27;6.15;;;4.80;;
67816;SDS011;54614;47.576;7.524;2023-09-08T09:16:56;6.43;;;5.32;;
67816;SDS011;54614;47.576;7.524;2023-09-08T09:19:22;6.95;;;5.15;;
67816;SDS011;54614;47.576;7.524;2023-09-08T09:21:56;7.55;;;5.40;;
67816;SDS011;54614;47.576;7.524;2023-09-08T09:24:34;5.93;;;5.32;;
67816;SDS011;54614;47.576;7.524;2023-09-08T09:27:08;6.07;;;5.07;;
67816;SDS011;54614;47.576;7.524;2023-09-08T09:29:50;6.63;;;5.07;;
67816;SDS011;54614;47.576;7.524;2023-09-08T09:32:16;6.80;;;5.00;;
67816;SDS011;54614;47.576;7.524;2023-09-08T09:34:49;5.93;;;5.03;;
67816;SDS011;54614;47.576;7.524;2023-09-08T09:37:21;6.05;;;4.85;;
67816;SDS011;54614;47.576;7.524;2023-09-08T09:39:49;5.65;;;5.03;;
67816;SDS011;54614;47.576;7.524;2023-09-08T09:42:17;5.90;;;5.20;;
67816;SDS011;54614;47.576;7.524;2023-09-08T09:44:43;6.05;;;4.70;;
67816;SDS011;54614;47.576;7.524;2023-09-08T09:47:09;5.60;;;4.55;;
67816;SDS011;54614;47.576;7.524;2023-09-08T09:49:45;5.53;;;4.95;;
67816;SDS011;54614;47.576;7.524;2023-09-08T09:52:14;7.70;;;5.25;;
67816;SDS011;54614;47.576;7.524;2023-09-08T09:54:48;5.50;;;4.95;;
67816;SDS011;54614;47.576;7.524;2023-09-08T09:57:18;5.20;;;4.65;;
67816;SDS011;54614;47.576;7.524;2023-09-08T09:59:47;5.78;;;5.20;;
67816;SDS011;54614;47.576;7.524;2023-09-08T10:02:17;6.43;;;4.85;;
67816;SDS011;54614;47.576;7.524;2023-09-08T10:04:47;5.72;;;4.90;;
67816;SDS011;54614;47.576;7.524;2023-09-08T10:07:17;5.22;;;4.72;;
67816;SDS011;54614;47.576;7.524;2023-09-08T10:09:43;6.13;;;4.78;;
67816;SDS011;54614;47.576;7.524;2023-09-08T10:12:09;6.45;;;4.90;;
67816;SDS011;54614;47.576;7.524;2023-09-08T10:14:42;7.32;;;4.80;;
67816;SDS011;54614;47.576;7.524;2023-09-08T10:17:15;5.97;;;4.70;;
67816;SDS011;54614;47.576;7.524;2023-09-08T10:19:45;4.88;;;4.38;;
67816;SDS011;54614;47.576;7.524;2023-09-08T10:22:16;5.80;;;4.95;;
67816;SDS011;54614;47.576;7.524;2023-09-08T10:24:49;5.97;;;5.05;;
67816;SDS011;54614;47.576;7.524;2023-09-08T10:27:18;5.75;;;4.88;;
67816;SDS011;54614;47.576;7.524;2023-09-08T10:29:46;5.80;;;4.72;;
67816;SDS011;54614;47.576;7.524;2023-09-08T10:32:13;5.57;;;4.97;;
67816;SDS011;54614;47.576;7.524;2023-09-08T10:34:43;5.63;;;4.88;;
67816;SDS011;54614;47.576;7.524;2023-09-08T10:37:23;4.97;;;4.28;;
67816;SDS011;54614;47.576;7.524;2023-09-08T10:39:54;5.20;;;4.53;;
67816;SDS011;54614;47.576;7.524;2023-09-08T10:42:21;6.55;;;4.75;;
67816;SDS011;54614;47.576;7.524;2023-09-08T10:45:01;4.93;;;4.30;;
67816;SDS011;54614;47.576;7.524;2023-09-08T10:50:18;5.07;;;4.57;;
67816;SDS011;54614;47.576;7.524;2023-09-08T10:53:05;5.55;;;4.63;;
67816;SDS011;54614;47.576;7.524;2023-09-08T10:55:47;5.85;;;4.60;;
67816;SDS011;54614;47.576;7.524;2023-09-08T10:58:18;4.80;;;4.40;;
67816;SDS011;54614;47.576;7.524;2023-09-08T11:01:04;5.20;;;4.30;;
67816;SDS011;54614;47.576;7.524;2023-09-08T11:06:02;6.15;;;4.75;;
67816;SDS011;54614;47.576;7.524;2023-09-08T11:08:29;5.13;;;4.57;;
67816;SDS011;54614;47.576;7.524;2023-09-08T11:10:55;4.95;;;4.45;;
67816;SDS011;54614;47.576;7.524;2023-09-08T11:13:22;4.90;;;4.50;;
67816;SDS011;54614;47.576;7.524;2023-09-08T11:15:50;4.82;;;4.35;;
67816;SDS011;54614;47.576;7.524;2023-09-08T11:18:17;4.90;;;4.40;;
67816;SDS011;54614;47.576;7.524;2023-09-08T11:20:51;5.60;;;4.38;;
67816;SDS011;54614;47.576;7.524;2023-09-08T11:23:18;5.03;;;4.38;;
67816;SDS011;54614;47.576;7.524;2023-09-08T11:25:45;4.75;;;4.35;;
67816;SDS011;54614;47.576;7.524;2023-09-08T11:28:12;5.03;;;4.50;;
67816;SDS011;54614;47.576;7.524;2023-09-08T11:30:38;4.90;;;4.43;;
67816;SDS011;54614;47.576;7.524;2023-09-08T11:33:13;5.32;;;4.82;;
67816;SDS011;54614;47.576;7.524;2023-09-08T11:35:40;5.70;;;4.18;;
67816;SDS011;54614;47.576;7.524;2023-09-08T11:38:09;4.93;;;4.50;;
67816;SDS011;54614;47.576;7.524;2023-09-08T11:40:36;4.78;;;4.38;;
67816;SDS011;54614;47.576;7.524;2023-09-08T11:43:02;4.70;;;4.18;;
67816;SDS011;54614;47.576;7.524;2023-09-08T11:45:30;5.07;;;4.50;;
67816;SDS011;54614;47.576;7.524;2023-09-08T11:47:59;4.78;;;4.38;;
67816;SDS011;54614;47.576;7.524;2023-09-08T11:50:26;5.03;;;4.53;;
67816;SDS011;54614;47.576;7.524;2023-09-08T11:52:52;4.82;;;4.35;;
67816;SDS011;54614;47.576;7.524;2023-09-08T11:55:20;4.55;;;4.15;;
67816;SDS011;54614;47.576;7.524;2023-09-08T11:57:48;4.53;;;4.13;;
67816;SDS011;54614;47.576;7.524;2023-09-08T12:00:20;4.85;;;4.35;;
67816;SDS011;54614;47.576;7.524;2023-09-08T12:02:48;4.75;;;4.25;;
67816;SDS011;54614;47.576;7.524;2023-09-08T12:05:27;4.90;;;4.40;;
67816;SDS011;54614;47.576;7.524;2023-09-08T12:07:55;4.95;;;4.05;;
67816;SDS011;54614;47.576;7.524;2023-09-08T12:10:23;4.88;;;4.38;;
67816;SDS011;54614;47.576;7.524;2023-09-08T12:12:54;4.60;;;4.20;;
67816;SDS011;54614;47.576;7.524;2023-09-08T12:15:32;4.72;;;4.22;;
67816;SDS011;54614;47.576;7.524;2023-09-08T12:18:00;4.43;;;4.03;;
67816;SDS011;54614;47.576;7.524;2023-09-08T12:20:29;4.90;;;4.40;;
67816;SDS011;54614;47.576;7.524;2023-09-08T12:23:00;5.43;;;4.20;;
67816;SDS011;54614;47.576;7.524;2023-09-08T12:25:32;4.55;;;4.15;;
67816;SDS011;54614;47.576;7.524;2023-09-08T12:27:59;4.55;;;4.10;;
67816;SDS011;54614;47.576;7.524;2023-09-08T12:30:26;5.00;;;4.50;;
67816;SDS011;54614;47.576;7.524;2023-09-08T12:32:58;4.78;;;4.10;;
67816;SDS011;54614;47.576;7.524;2023-09-08T12:35:26;5.18;;;4.60;;
67816;SDS011;54614;47.576;7.524;2023-09-08T12:37:53;4.60;;;4.20;;
67816;SDS011;54614;47.576;7.524;2023-09-08T12:40:24;5.03;;;4.47;;
67816;SDS011;54614;47.576;7.524;2023-09-08T12:42:51;4.40;;;4.00;;
67816;SDS011;54614;47.576;7.524;2023-09-08T12:45:17;4.70;;;4.30;;
67816;SDS011;54614;47.576;7.524;2023-09-08T12:47:45;4.10;;;3.80;;
67816;SDS011;54614;47.576;7.524;2023-09-08T12:50:11;4.88;;;4.15;;
67816;SDS011;54614;47.576;7.524;2023-09-08T12:52:38;4.57;;;4.18;;
67816;SDS011;54614;47.576;7.524;2023-09-08T12:55:05;4.72;;;4.20;;
67816;SDS011;54614;47.576;7.524;2023-09-08T12:57:32;4.50;;;4.10;;
67816;SDS011;54614;47.576;7.524;2023-09-08T12:59:58;4.85;;;4.35;;
67816;SDS011;54614;47.576;7.524;2023-09-08T13:02:24;4.60;;;4.20;;
67816;SDS011;54614;47.576;7.524;2023-09-08T13:04:49;4.43;;;4.03;;
67816;SDS011;54614;47.576;7.524;2023-09-08T13:07:15;4.03;;;3.67;;
67816;SDS011;54614;47.576;7.524;2023-09-08T13:09:42;4.43;;;4.03;;
67816;SDS011;54614;47.576;7.524;2023-09-08T13:12:08;4.53;;;4.13;;
67816;SDS011;54614;47.576;7.524;2023-09-08T13:14:35;5.22;;;4.30;;
67816;SDS011;54614;47.576;7.524;2023-09-08T13:17:02;4.60;;;4.20;;
67816;SDS011;54614;47.576;7.524;2023-09-08T13:19:28;4.28;;;3.88;;
67816;SDS011;54614;47.576;7.524;2023-09-08T13:21:54;4.30;;;3.90;;
67816;SDS011;54614;47.576;7.524;2023-09-08T13:24:20;4.10;;;3.80;;
67816;SDS011;54614;47.576;7.524;2023-09-08T13:26:47;4.30;;;3.90;;
67816;SDS011;54614;47.576;7.524;2023-09-08T13:29:13;4.63;;;4.22;;
67816;SDS011;54614;47.576;7.524;2023-09-08T13:31:39;4.53;;;4.00;;
67816;SDS011;54614;47.576;7.524;2023-09-08T13:34:05;4.25;;;3.85;;
67816;SDS011;54614;47.576;7.524;2023-09-08T13:36:31;4.30;;;3.90;;
67816;SDS011;54614;47.576;7.524;2023-09-08T13:38:56;4.10;;;3.80;;
67816;SDS011;54614;47.576;7.524;2023-09-08T13:41:23;3.90;;;3.60;;
67816;SDS011;54614;47.576;7.524;2023-09-08T13:43:49;4.28;;;3.88;;
67816;SDS011;54614;47.576;7.524;2023-09-08T13:46:15;4.35;;;3.95;;
67816;SDS011;54614;47.576;7.524;2023-09-08T13:48:42;4.38;;;3.97;;
67816;SDS011;54614;47.576;7.524;2023-09-08T13:51:07;4.13;;;3.72;;
67816;SDS011;54614;47.576;7.524;2023-09-08T13:53:33;4.53;;;4.10;;
67816;SDS011;54614;47.576;7.524;2023-09-08T13:56:00;4.03;;;3.63;;
67816;SDS011;54614;47.576;7.524;2023-09-08T13:58:26;4.65;;;3.80;;
67816;SDS011;54614;47.576;7.524;2023-09-08T14:00:51;3.88;;;3.58;;
67816;SDS011;54614;47.576;7.524;2023-09-08T14:03:17;4.78;;;3.90;;
67816;SDS011;54614;47.576;7.524;2023-09-08T14:05:46;4.25;;;3.85;;
67816;SDS011;54614;47.576;7.524;2023-09-08T14:08:12;4.40;;;4.00;;
67816;SDS011;54614;47.576;7.524;2023-09-08T14:10:37;4.20;;;3.80;;
67816;SDS011;54614;47.576;7.524;2023-09-08T14:13:03;4.38;;;3.97;;
67816;SDS011;54614;47.576;7.524;2023-09-08T14:15:29;4.18;;;3.78;;
67816;SDS011;54614;47.576;7.524;2023-09-08T14:17:55;4.35;;;3.95;;
67816;SDS011;54614;47.576;7.524;2023-09-08T14:20:21;4.30;;;3.90;;
67816;SDS011;54614;47.576;7.524;2023-09-08T14:22:47;4.00;;;3.70;;
67816;SDS011;54614;47.576;7.524;2023-09-08T14:25:13;4.00;;;3.65;;
67816;SDS011;54614;47.576;7.524;2023-09-08T14:27:39;4.18;;;3.78;;
67816;SDS011;54614;47.576;7.524;2023-09-08T14:30:05;3.90;;;3.60;;
67816;SDS011;54614;47.576;7.524;2023-09-08T14:32:31;3.97;;;3.67;;
67816;SDS011;54614;47.576;7.524;2023-09-08T14:34:57;4.40;;;3.80;;
67816;SDS011;54614;47.576;7.524;2023-09-08T14:37:23;4.00;;;3.70;;
67816;SDS011;54614;47.576;7.524;2023-09-08T14:39:48;4.00;;;3.65;;
67816;SDS011;54614;47.576;7.524;2023-09-08T14:42:14;3.80;;;3.50;;
67816;SDS011;54614;47.576;7.524;2023-09-08T14:44:41;3.80;;;3.50;;
67816;SDS011;54614;47.576;7.524;2023-09-08T14:47:07;4.05;;;3.75;;
67816;SDS011;54614;47.576;7.524;2023-09-08T14:49:33;4.10;;;3.70;;
67816;SDS011;54614;47.576;7.524;2023-09-08T14:51:59;3.70;;;3.40;;